EW9198 Weather Reports


Display with metric or nautical units.
time (UTC)temp
F
wind
direction
speed
MPH
gust
MPH
rain 1hr
in
rain 24hr
in
rain mn
in
humidity
%
barometer
mb
20190218004640 0 360 13.0 16.0 0.00 0.01 0.01 1011.8
20190218003145 0 360 11.0 15.0 0.00 0.01 0.01 1011.5
20190218001622 0 360 11.0 15.0 0.00 0.01 0.01 1011.1
20190218000125 0 360 11.0 15.0 0.00 0.01 0.01 1011.0
20190217234620 0 360 10.0 16.0 0.00 0.01 0.01 1010.7
20190217233033 0 360 13.0 17.0 0.00 0.01 0.01 1010.5
20190217231529 0 360 14.0 17.0 0.00 0.01 0.01 1010.5
20190217230026 0 360 16.0 19.0 0.00 0.01 0.01 1010.3
20190217224537 0 360 14.0 19.0 0.00 0.01 0.01 1010.1
20190217223023 0 360 14.0 18.0 0.00 0.01 0.01 1010.1
20190217221513 0 360 16.0 20.0 0.00 0.01 0.01 1009.9
20190217220004 0 360 14.0 18.0 0.00 0.01 0.01 1009.5
20190217214650 0 360 15.0 20.0 0.00 0.01 0.01 1009.3
20190217213212 0 360 15.0 19.0 0.00 0.01 0.01 1009.1
20190217211715 0 360 17.0 21.0 0.00 0.01 0.01 1009.2
20190217210220 0 360 16.0 20.0 0.00 0.01 0.01 1009.3
20190217204611 0 360 17.0 21.0 0.00 0.01 0.01 1009.4
20190217203212 0 360 17.0 21.0 0.00 0.01 0.01 1009.4
20190217201605 0 360 20.0 24.0 0.00 0.01 0.01 1009.5
20190217200108 0 360 20.0 24.0 0.00 0.01 0.01 1009.5
20190217194622 0 360 19.0 22.0 0.00 0.01 0.01 1009.4
20190217193103 0 360 19.0 23.0 0.00 0.01 0.01 1009.5
20190217191548 0 360 19.0 22.0 0.00 0.01 0.01 1009.5
20190217190049 0 360 21.0 24.0 0.00 0.01 0.01 1009.7
20190217184540 0 360 19.0 24.0 0.00 0.01 0.01 1009.7
20190217183026 0 360 19.0 23.0 0.00 0.01 0.01 1009.8
20190217181526 0 360 18.0 21.0 0.00 0.01 0.01 1009.7
20190217180037 0 360 16.0 20.0 0.00 0.01 0.01 1009.8
20190217174512 0 360 15.0 20.0 0.00 0.01 0.01 1009.5
20190217173003 158 360 16.0 23.0 0.00 0.01 0.01 100 1009.2
20190217171738 158 360 19.0 22.0 0.00 0.01 0.01 100 1009.1
20190217170123 158 360 19.0 23.0 0.00 0.01 0.01 100 1009.0
20190217164718 158 360 19.0 22.0 0.00 0.01 0.01 100 1008.5
20190217163136 158 360 18.0 21.0 0.00 0.01 0.01 100 1008.3
20190217161638 158 360 15.0 19.0 0.00 0.01 0.01 100 1008.2
20190217160111 158 360 13.0 18.0 0.00 0.01 0.01 100 1008.0
20190217154548 158 360 14.0 19.0 0.00 0.01 0.01 100 1007.9
20190217153041 158 360 16.0 18.0 0.00 0.01 0.01 100 1007.8
20190217151629 0 360 16.0 19.0 0.00 0.01 0.01 1007.9
20190217150045 158 360 15.0 19.0 0.00 0.01 0.01 100 1007.4
20190217144513 158 360 14.0 19.0 0.00 0.01 0.01 1007.0
20190217143011 158 360 14.0 17.0 0.00 0.01 0.01 100 1006.9
20190217141532 158 360 11.0 14.0 0.00 0.01 0.01 100 1006.4
20190217140213 158 360 12.0 17.0 0.00 0.01 0.01 100 1006.1
20190217134636 158 360 12.0 15.0 0.00 0.01 0.01 100 1006.1
20190217133210 158 360 9.0 12.0 0.00 0.01 0.01 100 1005.7
20190217131634 158 360 6.0 8.0 0.00 0.01 0.01 100 1005.7
20190217130145 158 360 3.0 8.0 0.00 0.01 0.01 100 1005.4
20190217124651 158 360 8.0 14.0 0.00 0.01 0.01 100 1005.0
20190217123139 158 360 7.0 9.0 0.00 0.01 0.01 100 1004.5
20190217121535 158 360 7.0 8.0 0.00 0.01 0.01 100 1004.6
20190217120055 158 360 7.0 8.0 0.01 0.01 0.01 100 1004.3
20190217114532 158 360 7.0 9.0 0.01 0.01 0.01 100 1004.2
20190217113028 158 360 9.0 19.0 0.01 0.01 0.01 100 1004.2
20190217111547 158 360 20.0 23.0 0.01 0.01 0.01 100 1003.9
20190217110024 158 360 17.0 20.0 0.00 0.00 0.00 100 1003.4
20190217104647 158 360 12.0 14.0 0.00 0.00 0.00 100 1003.1
20190217103152 158 360 3.0 10.0 0.00 0.00 0.00 100 1002.7
20190217101641 158 360 10.0 12.0 0.00 0.00 0.00 100 1002.6
20190217100155 158 360 15.0 17.0 0.00 0.00 0.00 100 1002.4
20190217094644 157 360 0.0 8.0 0.00 0.00 0.00 100 1001.2
20190217093117 158 360 8.0 9.0 0.00 0.00 0.00 100 1000.8
20190217091609 158 360 4.0 5.0 0.00 0.00 0.00 100 1001.0
20190217090223 158 360 4.0 8.0 0.00 0.00 0.00 100 1000.8
20190217084628 0 360 4.0 5.0 0.00 0.00 0.00 1000.9
20190217083109 158 360 3.0 6.0 0.00 0.00 0.00 100 1001.0
20190217081535 158 360 4.0 6.0 0.00 0.00 0.00 100 1001.1
20190217080015 158 360 4.0 6.0 0.00 0.00 0.00 100 1000.9
20190217074515 158 360 1.0 3.0 0.00 0.00 0.00 100 1001.3
20190217073005 158 360 1.0 4.0 0.00 0.00 0.00 100 1001.4
20190217071816 158 360 3.0 4.0 0.00 0.00 0.00 100 1001.3
20190217070233 158 360 0.0 0.0 0.00 0.00 0.00 100 1001.7
20190217064653 158 360 0.0 0.0 0.00 0.00 0.00 100 1002.0
20190217063126 158 360 0.0 0.0 0.00 0.00 0.00 100 1002.3
20190217061624 158 360 0.0 0.0 0.00 0.00 0.00 100 1002.5
20190217060210 0 360 0.0 0.0 0.00 0.00 0.00 1002.7
20190217054612 158 360 0.0 0.0 0.00 0.00 0.00 1002.9
20190217053124 158 360 0.0 0.0 0.00 0.00 0.00 100 1003.1
20190217051534 158 360 0.0 0.0 0.00 0.00 0.00 100 1003.3
20190217050041 0 360 0.0 0.0 0.00 0.00 0.00 1003.6
20190217044526 158 360 0.0 0.0 0.00 0.00 0.00 100 1003.6
20190217043014 0 360 0.0 0.0 0.00 0.00 0.00 1003.8
20190217041523 0 360 0.0 0.0 0.00 0.00 0.00 1004.0
20190217040002 0 360 0.0 0.0 0.00 0.00 0.00 1004.1
20190217034716 158 360 0.0 0.0 0.00 0.00 0.00 100 1003.7
20190217033139 158 360 0.0 0.0 0.00 0.00 0.00 100 1003.9
20190217031613 0 360 0.0 0.0 0.00 0.00 0.00 1003.8
20190217030130 158 360 0.0 0.0 0.00 0.00 0.00 1003.6
20190217024558 0 360 0.0 0.0 0.00 0.00 0.00 1003.6
20190217023100 158 360 0.0 0.0 0.00 0.00 0.00 100 1003.7
20190217021553 0 360 0.0 0.0 0.00 0.00 0.00 1003.9
20190217020052 158 360 0.0 0.0 0.00 0.00 0.00 100 1003.8
20190217014608 158 360 0.0 2.0 0.00 0.00 0.00 100 1003.7
20190217013037 0 360 0.0 0.0 0.00 0.00 0.00 1003.5
20190217011525 153 360 0.0 0.0 0.00 0.00 0.00 100 1003.6
20190217010021 0 360 0.0 3.0 0.00 0.00 0.00 100 1003.7